createdAt,value
2019-01-07T00:00:56.408Z,929.71
2019-01-07T00:01:56.376Z,929.76
2019-01-07T00:02:56.312Z,929.74
2019-01-07T00:03:56.279Z,929.75
2019-01-07T00:04:56.230Z,929.76
2019-01-07T00:05:56.180Z,929.77
2019-01-07T00:06:56.155Z,929.80
2019-01-07T00:07:56.088Z,929.78
2019-01-07T00:08:56.044Z,929.75
2019-01-07T00:09:56.001Z,929.71
2019-01-07T00:10:55.975Z,929.70
2019-01-07T00:11:55.910Z,929.71
2019-01-07T00:12:55.878Z,929.69
2019-01-07T00:13:55.841Z,929.69
2019-01-07T00:14:55.796Z,929.69
2019-01-07T00:15:55.751Z,929.69
2019-01-07T00:16:55.709Z,929.67
2019-01-07T00:17:55.642Z,929.70
2019-01-07T00:18:55.610Z,929.72
2019-01-07T00:19:55.565Z,929.71
2019-01-07T00:20:55.521Z,929.72
2019-01-07T00:21:55.483Z,929.71
2019-01-07T00:22:55.439Z,929.76
2019-01-07T00:23:55.374Z,929.71
2019-01-07T00:24:55.336Z,929.69
2019-01-07T00:25:55.297Z,929.75
2019-01-07T00:26:55.273Z,929.83
2019-01-07T00:27:55.196Z,929.88
2019-01-07T00:28:55.166Z,929.92
2019-01-07T00:29:55.126Z,929.95
2019-01-07T00:30:55.069Z,930.06
2019-01-07T00:31:55.017Z,930.10
2019-01-07T00:32:54.987Z,930.12
2019-01-07T00:33:54.928Z,930.17
2019-01-07T00:34:54.891Z,930.20
2019-01-07T00:35:54.854Z,930.24
2019-01-07T00:36:54.794Z,930.26
2019-01-07T00:37:54.762Z,930.26
2019-01-07T00:38:54.712Z,930.28
2019-01-07T00:39:54.681Z,930.24
2019-01-07T00:40:54.629Z,930.20
2019-01-07T00:41:54.571Z,930.14
2019-01-07T00:42:54.535Z,930.11
2019-01-07T00:43:54.482Z,930.08
2019-01-07T00:44:54.456Z,930.02
2019-01-07T00:45:54.405Z,930.03
2019-01-07T00:46:54.357Z,930.02
2019-01-07T00:47:54.316Z,930.07
2019-01-07T00:48:54.279Z,930.08
2019-01-07T00:49:54.227Z,930.07
2019-01-07T00:50:54.174Z,930.12
2019-01-07T00:51:54.125Z,930.14
2019-01-07T00:52:54.100Z,930.13
2019-01-07T00:53:54.036Z,930.16
2019-01-07T00:54:54.013Z,930.13
2019-01-07T00:55:53.947Z,930.15
2019-01-07T00:56:53.909Z,930.19
2019-01-07T00:57:53.864Z,930.18
2019-01-07T00:58:53.812Z,930.29
2019-01-07T00:59:53.768Z,930.24
2019-01-07T01:00:53.745Z,930.28
2019-01-07T01:01:53.678Z,930.26
2019-01-07T01:02:53.655Z,930.21
2019-01-07T01:03:53.596Z,930.25
2019-01-07T01:04:53.545Z,930.20
2019-01-07T01:05:53.507Z,930.23
2019-01-07T01:06:53.455Z,930.28
2019-01-07T01:07:53.410Z,930.27
2019-01-07T01:08:53.386Z,930.32
2019-01-07T01:09:53.333Z,930.35
2019-01-07T01:10:53.289Z,930.35
2019-01-07T01:11:53.238Z,930.42
2019-01-07T01:12:53.194Z,930.36
2019-01-07T01:13:53.154Z,930.32
2019-01-07T01:14:53.110Z,930.38
2019-01-07T01:15:53.054Z,930.37
2019-01-07T01:16:53.020Z,930.36
2019-01-07T01:17:52.983Z,930.34
2019-01-07T01:18:52.938Z,930.33
2019-01-07T01:19:52.886Z,930.27
2019-01-07T01:20:52.831Z,930.26
2019-01-07T01:21:52.784Z,930.24
2019-01-07T01:22:52.753Z,930.24
2019-01-07T01:23:52.714Z,930.26
2019-01-07T01:24:52.661Z,930.27
2019-01-07T01:25:52.626Z,930.31
2019-01-07T01:26:52.582Z,930.35
2019-01-07T01:27:52.530Z,930.35
2019-01-07T01:28:52.491Z,930.35
2019-01-07T01:29:52.448Z,930.44
2019-01-07T01:30:52.402Z,930.51
2019-01-07T01:31:52.350Z,930.51
2019-01-07T01:32:52.305Z,930.53
2019-01-07T01:33:52.247Z,930.57
2019-01-07T01:34:52.216Z,930.55
2019-01-07T01:35:52.172Z,930.57
2019-01-07T01:36:52.116Z,930.61
2019-01-07T01:37:52.076Z,930.59
2019-01-07T01:38:52.044Z,930.55
2019-01-07T01:39:51.999Z,930.52
2019-01-07T01:40:51.955Z,930.49
2019-01-07T01:41:51.892Z,930.48
2019-01-07T01:42:51.859Z,930.45
2019-01-07T01:43:51.801Z,930.43
2019-01-07T01:44:51.763Z,930.42
2019-01-07T01:45:51.731Z,930.40
2019-01-07T01:46:51.687Z,930.38
2019-01-07T01:47:51.630Z,930.37
2019-01-07T01:48:51.578Z,930.40
2019-01-07T01:49:51.540Z,930.41
2019-01-07T01:50:51.490Z,930.44
2019-01-07T01:51:51.463Z,930.47
2019-01-07T01:52:51.398Z,930.51
2019-01-07T01:53:51.374Z,930.49
2019-01-07T01:54:51.319Z,930.48
2019-01-07T01:55:51.274Z,930.49
2019-01-07T01:56:51.228Z,930.43
2019-01-07T01:57:51.175Z,930.44
2019-01-07T01:58:51.130Z,930.40
2019-01-07T01:59:51.086Z,930.43
2019-01-07T02:00:51.049Z,930.37
2019-01-07T02:01:51.016Z,930.38
2019-01-07T02:02:50.960Z,930.36
2019-01-07T02:03:50.907Z,930.35
2019-01-07T02:04:50.882Z,930.32
2019-01-07T02:05:50.832Z,930.30
2019-01-07T02:06:50.780Z,930.38
2019-01-07T02:07:50.730Z,930.37
2019-01-07T02:08:50.703Z,930.37
2019-01-07T02:09:50.639Z,930.39
2019-01-07T02:10:50.603Z,930.41
2019-01-07T02:11:50.558Z,930.41
2019-01-07T02:12:50.512Z,930.39
2019-01-07T02:13:50.480Z,930.42
2019-01-07T02:14:50.417Z,930.42
2019-01-07T02:15:50.370Z,930.40
2019-01-07T02:16:50.333Z,930.43
2019-01-07T02:17:50.286Z,930.39
2019-01-07T02:18:50.237Z,930.36
2019-01-07T02:19:50.192Z,930.38
2019-01-07T02:20:50.156Z,930.33
2019-01-07T02:21:50.112Z,930.32
2019-01-07T02:22:50.078Z,930.32
2019-01-07T02:23:50.021Z,930.31
2019-01-07T02:24:49.983Z,930.29
2019-01-07T02:25:49.938Z,930.33
2019-01-07T02:26:49.901Z,930.25
2019-01-07T02:27:49.844Z,930.27
2019-01-07T02:28:49.802Z,930.31
2019-01-07T02:29:49.756Z,930.25
2019-01-07T02:30:49.720Z,930.24
2019-01-07T02:31:49.677Z,930.22
2019-01-07T02:32:49.626Z,930.19
2019-01-07T02:33:49.566Z,930.20
2019-01-07T02:34:49.533Z,930.18
2019-01-07T02:35:49.491Z,930.12
2019-01-07T02:36:49.451Z,930.10
2019-01-07T02:37:49.394Z,930.10
2019-01-07T02:38:49.354Z,930.08
2019-01-07T02:39:49.297Z,930.09
2019-01-07T02:40:49.275Z,930.13
2019-01-07T02:41:49.226Z,930.09
2019-01-07T02:42:49.175Z,930.08
2019-01-07T02:43:49.166Z,930.09
2019-01-07T02:44:49.077Z,930.06
2019-01-07T02:45:48.978Z,930.08
2019-01-07T02:46:48.991Z,930.06
2019-01-07T02:47:48.955Z,930.03
2019-01-07T02:48:48.894Z,930.01
2019-01-07T02:49:48.857Z,930.02
2019-01-07T02:50:48.812Z,929.98
2019-01-07T02:51:48.761Z,929.98
2019-01-07T02:52:48.757Z,929.96
2019-01-07T02:53:48.670Z,930.01
2019-01-07T02:54:48.626Z,930.03
2019-01-07T02:55:48.594Z,930.01
2019-01-07T02:56:48.545Z,930.08
2019-01-07T02:57:48.492Z,930.09
2019-01-07T02:58:48.455Z,930.05
2019-01-07T02:59:48.401Z,929.98
2019-01-07T03:00:48.356Z,930.02
2019-01-07T03:01:48.319Z,929.99
2019-01-07T03:02:48.288Z,930.01
2019-01-07T03:03:48.243Z,929.98
2019-01-07T03:04:48.191Z,929.96
2019-01-07T03:05:48.146Z,929.95
2019-01-07T03:06:48.125Z,929.90
2019-01-07T03:07:48.064Z,929.93
2019-01-07T03:08:48.023Z,929.91
2019-01-07T03:09:47.963Z,929.89
2019-01-07T03:10:47.931Z,929.88
2019-01-07T03:11:47.884Z,929.84
2019-01-07T03:12:47.831Z,929.85
2019-01-07T03:13:47.796Z,929.81
2019-01-07T03:14:47.746Z,929.82
2019-01-07T03:15:47.687Z,929.77
2019-01-07T03:16:47.652Z,929.80
2019-01-07T03:17:47.615Z,929.79
2019-01-07T03:18:47.569Z,929.79
2019-01-07T03:19:47.527Z,929.78
2019-01-07T03:20:47.461Z,929.74
2019-01-07T03:21:47.619Z,929.71
2019-01-07T03:22:47.391Z,929.73
2019-01-07T03:23:47.339Z,929.70
2019-01-07T03:24:47.298Z,929.68
2019-01-07T03:25:47.266Z,929.67
2019-01-07T03:26:47.205Z,929.64
2019-01-07T03:27:47.158Z,929.69
2019-01-07T03:28:47.109Z,929.70
2019-01-07T03:29:47.070Z,929.75
2019-01-07T03:30:47.033Z,929.76
2019-01-07T03:31:46.996Z,929.81
2019-01-07T03:32:46.926Z,929.76
2019-01-07T03:33:46.885Z,929.78
2019-01-07T03:34:46.857Z,929.75
2019-01-07T03:35:46.807Z,929.74
2019-01-07T03:36:46.759Z,929.72
2019-01-07T03:37:46.717Z,929.68
2019-01-07T03:38:46.663Z,929.63
2019-01-07T03:39:46.614Z,929.67
2019-01-07T03:40:46.563Z,929.61
2019-01-07T03:41:46.530Z,929.63
2019-01-07T03:42:46.474Z,929.60
2019-01-07T03:43:46.428Z,929.57
2019-01-07T03:44:46.397Z,929.61
2019-01-07T03:45:46.359Z,929.60
2019-01-07T03:46:46.294Z,929.57
2019-01-07T03:47:46.260Z,929.59
2019-01-07T03:48:46.215Z,929.57
2019-01-07T03:49:46.179Z,929.55
2019-01-07T03:50:46.139Z,929.55
2019-01-07T03:51:46.091Z,929.54
2019-01-07T03:52:46.036Z,929.55
2019-01-07T03:53:45.989Z,929.53
2019-01-07T03:54:45.936Z,929.56
2019-01-07T03:55:45.899Z,929.58
2019-01-07T03:56:45.847Z,929.59
2019-01-07T03:57:45.799Z,929.53
2019-01-07T03:58:45.754Z,929.54
2019-01-07T03:59:45.722Z,929.49
2019-01-07T04:00:45.684Z,929.49
2019-01-07T04:01:45.627Z,929.50
2019-01-07T04:02:45.576Z,929.48
2019-01-07T04:03:45.543Z,929.42
2019-01-07T04:04:45.498Z,929.42
2019-01-07T04:05:45.453Z,929.40
2019-01-07T04:06:45.418Z,929.38
2019-01-07T04:07:45.357Z,929.33
2019-01-07T04:08:45.327Z,929.30
2019-01-07T04:09:45.292Z,929.32
2019-01-07T04:10:45.236Z,929.30
2019-01-07T04:11:45.178Z,929.27
2019-01-07T04:12:45.134Z,929.28
2019-01-07T04:13:45.080Z,929.26
2019-01-07T04:14:45.048Z,929.25
2019-01-07T04:15:45.001Z,929.23
2019-01-07T04:16:44.966Z,929.25
2019-01-07T04:17:44.922Z,929.28
2019-01-07T04:18:44.864Z,929.22
2019-01-07T04:19:44.812Z,929.24
2019-01-07T04:20:44.769Z,929.21
2019-01-07T04:21:44.722Z,929.20
2019-01-07T04:22:44.697Z,929.19
2019-01-07T04:23:44.653Z,929.16
2019-01-07T04:24:44.596Z,929.24
2019-01-07T04:25:44.543Z,929.25
2019-01-07T04:26:44.510Z,929.24
2019-01-07T04:27:44.455Z,929.23
2019-01-07T04:28:44.415Z,929.18
2019-01-07T04:29:44.374Z,929.18
2019-01-07T04:30:44.333Z,929.19
2019-01-07T04:31:44.280Z,929.20
2019-01-07T04:32:44.228Z,929.16
2019-01-07T04:33:44.191Z,929.15
2019-01-07T04:34:44.148Z,929.10
2019-01-07T04:35:44.114Z,929.10
2019-01-07T04:36:44.048Z,929.11
2019-01-07T04:37:44.012Z,929.09
2019-01-07T04:38:43.958Z,929.08
2019-01-07T04:39:43.912Z,929.08
2019-01-07T04:40:43.868Z,929.05
2019-01-07T04:41:43.834Z,929.03
2019-01-07T04:42:43.785Z,929.02
2019-01-07T04:43:43.741Z,929.05
2019-01-07T04:44:43.708Z,929.02
2019-01-07T04:45:43.653Z,929.03
2019-01-07T04:46:43.619Z,929.02
2019-01-07T04:47:43.562Z,929.06
2019-01-07T04:48:43.518Z,929.00
2019-01-07T04:49:43.489Z,928.93
2019-01-07T04:50:43.433Z,928.94
2019-01-07T04:51:43.398Z,928.96
2019-01-07T04:52:43.342Z,928.93
2019-01-07T04:53:43.304Z,928.95
2019-01-07T04:54:43.240Z,928.91
2019-01-07T04:55:43.194Z,928.90
2019-01-07T04:56:43.174Z,928.87
2019-01-07T04:57:43.113Z,928.85
2019-01-07T04:58:43.067Z,928.85
2019-01-07T04:59:43.027Z,928.82
2019-01-07T05:00:42.978Z,928.85
2019-01-07T05:01:42.924Z,928.81
2019-01-07T05:02:42.897Z,928.83
2019-01-07T05:03:42.846Z,928.83
2019-01-07T05:04:42.798Z,928.79
2019-01-07T05:05:42.754Z,928.79
2019-01-07T05:06:42.719Z,928.80
2019-01-07T05:07:42.668Z,928.83
2019-01-07T05:08:42.611Z,928.78
2019-01-07T05:09:42.577Z,928.84
2019-01-07T05:10:42.532Z,928.81
2019-01-07T05:11:42.473Z,928.80
2019-01-07T05:12:42.453Z,928.77
2019-01-07T05:13:42.398Z,928.73
2019-01-07T05:14:42.340Z,928.71
2019-01-07T05:15:42.302Z,928.70
2019-01-07T05:16:42.257Z,928.64
2019-01-07T05:17:42.212Z,928.68
2019-01-07T05:18:42.185Z,928.65
2019-01-07T05:19:42.135Z,928.60
2019-01-07T05:20:42.088Z,928.64
2019-01-07T05:21:42.037Z,928.63
2019-01-07T05:22:41.991Z,928.61
2019-01-07T05:23:41.954Z,928.58
2019-01-07T05:24:41.911Z,928.59
2019-01-07T05:25:41.864Z,928.61
2019-01-07T05:26:41.801Z,928.61
2019-01-07T05:27:41.774Z,928.63
2019-01-07T05:28:41.735Z,928.61
2019-01-07T05:29:41.673Z,928.59
2019-01-07T05:30:41.638Z,928.60
2019-01-07T05:31:41.586Z,928.58
2019-01-07T05:32:41.529Z,928.58
2019-01-07T05:33:41.506Z,928.57
2019-01-07T05:34:41.440Z,928.58
2019-01-07T05:35:41.408Z,928.57
2019-01-07T05:36:41.362Z,928.58
2019-01-07T05:37:41.314Z,928.58
2019-01-07T05:38:41.270Z,928.57
2019-01-07T05:39:42.116Z,928.56
2019-01-07T05:40:41.378Z,928.53
2019-01-07T05:41:41.131Z,928.49
2019-01-07T05:42:41.083Z,928.54
2019-01-07T05:43:41.044Z,928.53
2019-01-07T05:44:40.996Z,928.54
2019-01-07T05:45:40.958Z,928.54
2019-01-07T05:46:40.934Z,928.51
2019-01-07T05:47:40.860Z,928.52
2019-01-07T05:48:40.830Z,928.50
2019-01-07T05:49:40.784Z,928.50
2019-01-07T05:50:40.726Z,928.52
2019-01-07T05:51:40.673Z,928.54
2019-01-07T05:52:40.647Z,928.56
2019-01-07T05:53:40.591Z,928.54
2019-01-07T05:54:40.550Z,928.54
2019-01-07T05:55:40.492Z,928.54
2019-01-07T05:56:40.459Z,928.50
2019-01-07T05:57:40.422Z,928.51
2019-01-07T05:58:40.377Z,928.50
2019-01-07T05:59:40.333Z,928.52
2019-01-07T06:00:40.277Z,928.57
2019-01-07T06:01:40.241Z,928.61
2019-01-07T06:02:40.196Z,928.58
2019-01-07T06:03:40.139Z,928.59
2019-01-07T06:04:40.108Z,928.56
2019-01-07T06:05:40.042Z,928.55
2019-01-07T06:06:40.009Z,928.58
2019-01-07T06:07:39.963Z,928.58
2019-01-07T06:08:39.917Z,928.58
2019-01-07T06:09:39.880Z,928.55
2019-01-07T06:10:39.835Z,928.57
2019-01-07T06:11:39.782Z,928.52
2019-01-07T06:12:39.737Z,928.53
2019-01-07T06:13:40.343Z,928.50
2019-01-07T06:14:39.644Z,928.52
2019-01-07T06:15:39.590Z,928.53
2019-01-07T06:16:39.754Z,928.52
2019-01-07T06:17:39.509Z,928.44
2019-01-07T06:18:39.463Z,928.48
2019-01-07T06:19:39.416Z,928.46
2019-01-07T06:20:39.374Z,928.49
2019-01-07T06:21:39.333Z,928.49
2019-01-07T06:22:39.285Z,928.51
2019-01-07T06:23:39.242Z,928.51
2019-01-07T06:24:39.204Z,928.52
2019-01-07T06:25:39.154Z,928.53
2019-01-07T06:26:39.113Z,928.49
2019-01-07T06:27:39.060Z,928.48
2019-01-07T06:28:39.003Z,928.50
2019-01-07T06:29:38.969Z,928.46
2019-01-07T06:30:38.919Z,928.52
2019-01-07T06:31:38.867Z,928.55
2019-01-07T06:32:38.837Z,928.52
2019-01-07T06:33:38.789Z,928.51
2019-01-07T06:34:38.744Z,928.45
2019-01-07T06:35:38.700Z,928.48
2019-01-07T06:36:38.655Z,928.48
2019-01-07T06:37:38.596Z,928.44
2019-01-07T06:38:38.555Z,928.45
2019-01-07T06:39:38.524Z,928.44
2019-01-07T06:40:38.473Z,928.45
2019-01-07T06:41:38.415Z,928.38
2019-01-07T06:42:38.389Z,928.35
2019-01-07T06:43:38.333Z,928.35
2019-01-07T06:44:38.280Z,928.36
2019-01-07T06:45:38.247Z,928.41
2019-01-07T06:46:38.209Z,928.39
2019-01-07T06:47:38.152Z,928.42
2019-01-07T06:48:38.105Z,928.44
2019-01-07T06:49:38.074Z,928.44
2019-01-07T06:50:38.028Z,928.42
2019-01-07T06:51:37.979Z,928.47
2019-01-07T06:52:37.925Z,928.45
2019-01-07T06:53:37.885Z,928.49
2019-01-07T06:54:37.826Z,928.49
2019-01-07T06:55:37.794Z,928.51
2019-01-07T06:56:37.746Z,928.50
2019-01-07T06:57:37.710Z,928.49
2019-01-07T06:58:37.666Z,928.44
2019-01-07T06:59:37.620Z,928.44
2019-01-07T07:00:37.557Z,928.39
2019-01-07T07:01:37.522Z,928.42
2019-01-07T07:02:37.472Z,928.42
2019-01-07T07:03:37.427Z,928.42
2019-01-07T07:04:37.386Z,928.42
2019-01-07T07:05:37.330Z,928.43
2019-01-07T07:06:37.287Z,928.40
2019-01-07T07:07:37.240Z,928.38
2019-01-07T07:08:37.208Z,928.39
2019-01-07T07:09:37.156Z,928.40
2019-01-07T07:10:37.104Z,928.39
2019-01-07T07:11:37.064Z,928.41
2019-01-07T07:12:37.021Z,928.45
2019-01-07T07:13:36.979Z,928.44
2019-01-07T07:14:36.941Z,928.46
2019-01-07T07:15:36.896Z,928.43
2019-01-07T07:16:36.843Z,928.42
2019-01-07T07:17:36.805Z,928.46
2019-01-07T07:18:36.747Z,928.42
2019-01-07T07:19:36.714Z,928.42
2019-01-07T07:20:36.650Z,928.41
2019-01-07T07:21:36.617Z,928.46
2019-01-07T07:22:36.566Z,928.47
2019-01-07T07:23:36.533Z,928.52
2019-01-07T07:24:36.479Z,928.52
2019-01-07T07:25:36.443Z,928.54
2019-01-07T07:26:36.398Z,928.55
2019-01-07T07:27:36.344Z,928.56
2019-01-07T07:28:36.288Z,928.58
2019-01-07T07:29:36.242Z,928.61
2019-01-07T07:30:36.406Z,928.60
2019-01-07T07:31:36.171Z,928.63
2019-01-07T07:32:36.114Z,928.61
2019-01-07T07:33:36.075Z,928.58
2019-01-07T07:34:36.036Z,928.55
2019-01-07T07:35:35.985Z,928.60
2019-01-07T07:36:35.932Z,928.60
2019-01-07T07:37:35.899Z,928.57
2019-01-07T07:38:35.847Z,928.62
2019-01-07T07:39:35.802Z,928.58
2019-01-07T07:40:35.743Z,928.63
2019-01-07T07:41:35.706Z,928.62
2019-01-07T07:42:35.660Z,928.64
2019-01-07T07:43:35.627Z,928.66
2019-01-07T07:44:35.570Z,928.65
2019-01-07T07:45:35.538Z,928.65
2019-01-07T07:46:35.500Z,928.60
2019-01-07T07:47:35.449Z,928.65
2019-01-07T07:48:35.381Z,928.65
2019-01-07T07:49:35.348Z,928.70
2019-01-07T07:50:35.311Z,928.70
2019-01-07T07:51:35.246Z,928.70
2019-01-07T07:52:35.200Z,928.71
2019-01-07T07:53:35.175Z,928.70
2019-01-07T07:54:35.117Z,928.73
2019-01-07T07:55:35.067Z,928.69
2019-01-07T07:56:35.028Z,928.69
2019-01-07T07:57:34.986Z,928.70
2019-01-07T07:58:34.929Z,928.71
2019-01-07T07:59:34.907Z,928.72
2019-01-07T08:00:34.860Z,928.73
2019-01-07T08:01:34.812Z,928.70
2019-01-07T08:02:34.755Z,928.68
2019-01-07T08:03:34.709Z,928.71
2019-01-07T08:04:34.664Z,928.71
2019-01-07T08:05:34.624Z,928.71
2019-01-07T08:06:34.576Z,928.74
2019-01-07T08:08:07.738Z,928.72
2019-01-07T08:08:34.495Z,928.76
2019-01-07T08:09:34.450Z,928.73
2019-01-07T08:10:34.386Z,928.71
2019-01-07T08:11:34.347Z,928.77
2019-01-07T08:12:34.297Z,928.75
2019-01-07T08:13:34.256Z,928.76
2019-01-07T08:14:34.224Z,928.79
2019-01-07T08:15:34.178Z,928.80
2019-01-07T08:16:34.113Z,928.77
2019-01-07T08:17:34.090Z,928.76
2019-01-07T08:18:34.022Z,928.79
2019-01-07T08:19:33.997Z,928.77
2019-01-07T08:20:33.951Z,928.77
2019-01-07T08:21:33.895Z,928.77
2019-01-07T08:22:33.853Z,928.78
2019-01-07T08:23:33.808Z,928.77
2019-01-07T08:24:33.757Z,928.77
2019-01-07T08:25:33.713Z,928.76
2019-01-07T08:26:33.676Z,928.76
2019-01-07T08:27:33.614Z,928.78
2019-01-07T08:28:33.576Z,928.81
2019-01-07T08:29:33.523Z,928.82
2019-01-07T08:30:33.491Z,928.79
2019-01-07T08:31:33.442Z,928.81
2019-01-07T08:32:33.400Z,928.82
2019-01-07T08:33:33.343Z,928.81
2019-01-07T08:34:33.310Z,928.83
2019-01-07T08:35:33.252Z,928.81
2019-01-07T08:36:33.226Z,928.81
2019-01-07T08:37:33.161Z,928.79
2019-01-07T08:38:33.115Z,928.85
2019-01-07T08:39:33.090Z,928.86
2019-01-07T08:40:33.037Z,928.87
2019-01-07T08:41:32.979Z,928.92
2019-01-07T08:42:32.946Z,928.90
2019-01-07T08:43:32.893Z,928.92
2019-01-07T08:44:32.856Z,928.90
2019-01-07T08:45:32.798Z,928.89
2019-01-07T08:46:32.761Z,928.94
2019-01-07T08:47:32.760Z,928.98
2019-01-07T08:48:32.675Z,928.98
2019-01-07T08:49:32.617Z,929.02
2019-01-07T08:50:32.586Z,929.00
2019-01-07T08:51:32.552Z,928.99
2019-01-07T08:52:32.489Z,929.01
2019-01-07T08:53:32.447Z,929.03
2019-01-07T08:54:32.412Z,929.04
2019-01-07T08:55:36.629Z,929.00
2019-01-07T08:56:32.311Z,929.03
2019-01-07T08:57:32.265Z,929.03
2019-01-07T08:58:32.219Z,929.08
2019-01-07T08:59:32.169Z,929.15
2019-01-07T09:00:32.124Z,929.15
2019-01-07T09:01:32.090Z,929.10
2019-01-07T09:02:32.041Z,929.05
2019-01-07T09:03:32.002Z,929.11
2019-01-07T09:04:31.944Z,929.13
2019-01-07T09:05:31.907Z,929.16
2019-01-07T09:06:31.868Z,929.19
2019-01-07T09:07:31.824Z,929.22
2019-01-07T09:08:31.774Z,929.23
2019-01-07T09:09:31.833Z,929.28
2019-01-07T09:10:31.678Z,929.18
2019-01-07T09:11:31.643Z,929.15
2019-01-07T09:12:31.612Z,929.21
2019-01-07T09:13:31.552Z,929.37
2019-01-07T09:14:38.970Z,929.48
2019-01-07T09:15:31.458Z,929.55
2019-01-07T09:16:31.421Z,929.45
2019-01-07T09:17:31.383Z,929.49
2019-01-07T09:18:31.338Z,929.35
2019-01-07T09:19:31.295Z,929.26
2019-01-07T09:20:31.260Z,929.50
2019-01-07T09:21:31.208Z,929.51
2019-01-07T09:22:31.109Z,929.38
2019-01-07T09:23:31.122Z,929.39
2019-01-07T09:24:33.872Z,929.29
2019-01-07T09:25:31.046Z,929.32
2019-01-07T09:26:31.000Z,929.26
2019-01-07T09:27:30.957Z,929.29
2019-01-07T09:28:30.948Z,929.31
2019-01-07T09:29:30.874Z,929.45
2019-01-07T09:30:30.811Z,929.45
2019-01-07T09:31:30.787Z,929.28
2019-01-07T09:32:30.731Z,929.26
2019-01-07T09:33:30.741Z,929.31
2019-01-07T09:34:30.660Z,929.79
2019-01-07T09:35:30.789Z,930.16
2019-01-07T09:36:30.730Z,930.19
2019-01-07T09:37:30.586Z,930.17
2019-01-07T09:38:30.518Z,930.18
2019-01-07T09:39:30.578Z,930.16
2019-01-07T09:40:30.441Z,930.11
2019-01-07T09:41:30.394Z,930.04
2019-01-07T09:42:30.538Z,929.99
2019-01-07T09:43:30.453Z,930.02
2019-01-07T09:44:30.319Z,929.96
2019-01-07T09:45:30.439Z,930.00
2019-01-07T09:46:30.196Z,929.98
2019-01-07T09:47:30.314Z,929.95
2019-01-07T09:48:30.147Z,930.04
2019-01-07T09:49:30.095Z,930.10
2019-01-07T09:50:30.003Z,930.03
2019-01-07T09:51:29.978Z,930.04
2019-01-07T09:52:29.930Z,930.03
2019-01-07T09:53:29.880Z,930.10
2019-01-07T09:54:29.859Z,930.14
2019-01-07T09:55:29.825Z,930.17
2019-01-07T09:56:29.780Z,930.14
2019-01-07T09:57:29.743Z,930.14
2019-01-07T09:58:29.778Z,930.21
2019-01-07T09:59:29.684Z,930.13
2019-01-07T10:00:29.648Z,930.04
2019-01-07T10:01:29.597Z,930.13
2019-01-07T10:02:29.571Z,930.14
2019-01-07T10:03:29.529Z,930.16
2019-01-07T10:04:29.505Z,930.19
2019-01-07T10:05:29.465Z,930.19
2019-01-07T10:06:29.418Z,930.19
2019-01-07T10:07:29.404Z,930.21
2019-01-07T10:08:29.361Z,930.20
2019-01-07T10:09:29.327Z,930.23
2019-01-07T10:10:29.280Z,930.30
2019-01-07T10:11:29.304Z,930.27
2019-01-07T10:12:29.330Z,930.29
2019-01-07T10:13:29.191Z,930.36
2019-01-07T10:14:29.147Z,930.35
2019-01-07T10:15:29.115Z,930.37
2019-01-07T10:16:29.092Z,930.40
2019-01-07T10:17:29.063Z,930.43
2019-01-07T10:18:29.039Z,930.49
2019-01-07T10:19:28.998Z,930.48
2019-01-07T10:20:28.948Z,930.48
2019-01-07T10:21:28.939Z,930.51
2019-01-07T10:22:28.901Z,930.53
2019-01-07T10:23:28.857Z,930.52
2019-01-07T10:24:28.837Z,930.55
2019-01-07T10:25:28.793Z,930.56
2019-01-07T10:26:28.778Z,930.56
2019-01-07T10:27:28.765Z,930.58
2019-01-07T10:28:28.700Z,930.63
2019-01-07T10:29:28.656Z,930.61
2019-01-07T10:30:28.749Z,930.66
2019-01-07T10:31:28.610Z,930.67
2019-01-07T10:32:28.572Z,930.68
2019-01-07T10:33:28.539Z,930.70
2019-01-07T10:34:28.514Z,930.69
2019-01-07T10:35:28.463Z,930.67
2019-01-07T10:36:28.448Z,930.31
2019-01-07T10:37:28.427Z,929.91
2019-01-07T10:38:28.386Z,929.84
2019-01-07T10:39:28.362Z,929.77
2019-01-07T10:40:28.384Z,929.73
2019-01-07T10:41:28.277Z,929.71
2019-01-07T10:42:28.199Z,929.74
2019-01-07T10:43:28.210Z,929.73
2019-01-07T10:44:28.184Z,929.70
2019-01-07T10:45:28.144Z,929.69
2019-01-07T10:46:28.109Z,929.74
2019-01-07T10:47:28.068Z,929.75
2019-01-07T10:48:28.085Z,929.70
2019-01-07T10:49:28.002Z,929.67
2019-01-07T10:50:27.961Z,929.69
2019-01-07T10:51:27.937Z,929.64
2019-01-07T10:52:27.898Z,929.58
2019-01-07T10:53:27.852Z,929.65
2019-01-07T10:54:27.816Z,929.63
2019-01-07T10:55:27.778Z,929.64
2019-01-07T10:56:27.746Z,929.64
2019-01-07T10:57:27.714Z,929.64
2019-01-07T10:58:27.649Z,929.64
2019-01-07T10:59:27.630Z,929.65
2019-01-07T11:00:27.594Z,929.62
2019-01-07T11:01:27.543Z,929.59
2019-01-07T11:02:27.549Z,929.65
2019-01-07T11:03:27.404Z,929.66
2019-01-07T11:04:27.430Z,929.67
2019-01-07T11:05:27.392Z,929.67
2019-01-07T11:06:27.342Z,929.71
2019-01-07T11:07:27.322Z,929.64
2019-01-07T11:08:27.255Z,929.60
2019-01-07T11:09:27.216Z,929.61
2019-01-07T11:10:27.190Z,929.64
2019-01-07T11:11:27.132Z,929.64
2019-01-07T11:12:27.092Z,929.60
2019-01-07T11:13:27.061Z,929.65
2019-01-07T11:14:27.025Z,929.63
2019-01-07T11:15:26.969Z,929.67
2019-01-07T11:16:26.944Z,929.66
2019-01-07T11:17:26.909Z,929.67
2019-01-07T11:18:26.847Z,929.68
2019-01-07T11:19:26.813Z,929.73
2019-01-07T11:20:26.789Z,929.76
2019-01-07T11:21:26.745Z,929.69
2019-01-07T11:22:26.706Z,929.67
2019-01-07T11:23:26.667Z,929.66
2019-01-07T11:24:26.601Z,929.68
2019-01-07T11:25:26.567Z,929.64
2019-01-07T11:26:26.526Z,929.66
2019-01-07T11:27:26.478Z,929.63
2019-01-07T11:28:26.511Z,929.65
2019-01-07T11:29:26.395Z,929.65
2019-01-07T11:30:26.375Z,929.62
2019-01-07T11:31:26.320Z,929.59
2019-01-07T11:32:26.237Z,929.62
2019-01-07T11:33:26.242Z,929.58
2019-01-07T11:34:26.200Z,929.54
2019-01-07T11:35:26.161Z,929.56
2019-01-07T11:36:26.117Z,929.57
2019-01-07T11:37:26.065Z,929.61
2019-01-07T11:38:26.027Z,929.58
2019-01-07T11:39:25.989Z,929.60
2019-01-07T11:40:25.943Z,929.61
2019-01-07T11:41:25.912Z,929.59
2019-01-07T11:42:25.859Z,929.56
2019-01-07T11:43:25.825Z,929.61
2019-01-07T11:44:25.788Z,929.55
2019-01-07T11:45:25.743Z,929.65
2019-01-07T11:46:25.713Z,929.61
2019-01-07T11:47:25.666Z,929.60
2019-01-07T11:48:25.623Z,929.61
2019-01-07T11:49:25.586Z,929.59
2019-01-07T11:50:25.549Z,929.62
2019-01-07T11:51:25.497Z,929.61
2019-01-07T11:52:25.457Z,929.59
2019-01-07T11:53:25.418Z,929.62
2019-01-07T11:54:25.371Z,929.64
2019-01-07T11:55:25.322Z,929.60
2019-01-07T11:56:25.294Z,929.61
2019-01-07T11:57:25.197Z,929.63
2019-01-07T11:58:25.219Z,929.67
2019-01-07T11:59:25.161Z,929.64
2019-01-07T12:00:25.125Z,929.61
2019-01-07T12:01:25.128Z,929.67
2019-01-07T12:02:24.994Z,929.66
2019-01-07T12:03:25.054Z,929.62
2019-01-07T12:04:24.962Z,929.61
2019-01-07T12:05:24.917Z,929.66
2019-01-07T12:06:24.874Z,929.69
2019-01-07T12:07:24.827Z,929.70
2019-01-07T12:08:24.803Z,929.63
2019-01-07T12:09:24.763Z,929.69
2019-01-07T12:10:24.714Z,929.66
2019-01-07T12:11:28.518Z,929.60
2019-01-07T12:12:24.630Z,929.59
2019-01-07T12:13:24.596Z,929.64
2019-01-07T12:14:24.976Z,929.58
2019-01-07T12:15:24.498Z,929.61
2019-01-07T12:16:24.451Z,929.58
2019-01-07T12:17:24.479Z,929.61
2019-01-07T12:18:24.377Z,929.64
2019-01-07T12:19:24.339Z,929.68
2019-01-07T12:20:24.308Z,929.63
2019-01-07T12:21:24.264Z,929.56
2019-01-07T12:22:24.215Z,929.59
2019-01-07T12:23:24.174Z,929.56
2019-01-07T12:24:24.086Z,929.58
2019-01-07T12:25:24.095Z,929.58
2019-01-07T12:26:24.057Z,929.63
2019-01-07T12:27:24.011Z,929.61
2019-01-07T12:28:23.997Z,929.55